Time;durP1;ratioP1;P1;durP2;ratioP2;P2;SDS_P1;SDS_P2;PMS_P1;PMS_P2;Temp;Humidity;BMP_temperature;BMP_pressure;BME280_temperature;BME280_humidity;BME280_pressure;Samples;Min_cycle;Max_cycle;Signal;HPM_P1;HPM_P2
2021/07/31 00:01:08;;;;;;;3.85;1.40;;;;;;;11.96;43.43;94809.69;5014593;28;20045;-71
2021/07/31 00:03:37;;;;;;;4.28;1.63;;;;;;;11.78;43.41;94805.84;5010611;28;20170;-71
2021/07/31 00:06:02;;;;;;;3.47;1.00;;;;;;;12.06;43.21;94812.81;5009537;28;20148;-70
2021/07/31 00:08:31;;;;;;;4.40;1.40;;;;;;;12.31;42.79;94814.84;5010663;28;20110;-70
2021/07/31 00:10:56;;;;;;;2.45;1.30;;;;;;;12.08;42.88;94820.63;5010324;28;20428;-70
2021/07/31 00:13:22;;;;;;;4.00;1.17;;;;;;;12.40;42.11;94818.91;5015597;28;20025;-71
2021/07/31 00:15:47;;;;;;;2.85;1.23;;;;;;;12.41;41.37;94807.19;5010625;28;20046;-70
2021/07/31 00:18:13;;;;;;;3.35;1.30;;;;;;;12.82;41.55;94809.75;5011211;28;20074;-70
2021/07/31 00:20:39;;;;;;;4.65;1.20;;;;;;;13.18;40.53;94810.19;5011423;28;20102;-70
2021/07/31 00:23:04;;;;;;;4.07;1.52;;;;;;;13.42;40.08;94813.97;5009869;28;20189;-70
2021/07/31 00:25:30;;;;;;;3.90;1.52;;;;;;;12.92;41.13;94807.44;5012239;28;20181;-71
2021/07/31 00:27:55;;;;;;;2.03;1.30;;;;;;;13.33;40.05;94804.59;5011327;28;20121;-71
2021/07/31 00:30:23;;;;;;;4.18;1.30;;;;;;;12.06;43.10;94810.16;5011434;28;20093;-71
2021/07/31 00:32:50;;;;;;;4.28;1.45;;;;;;;13.30;40.74;94810.34;5011185;28;20113;-71
2021/07/31 00:35:15;;;;;;;3.25;1.40;;;;;;;13.42;40.19;94815.81;5011393;28;20102;-71
2021/07/31 00:37:41;;;;;;;3.47;1.30;;;;;;;12.53;42.41;94812.72;5011162;28;20089;-71
2021/07/31 00:40:09;;;;;;;4.82;1.48;;;;;;;13.08;41.25;94813.34;5010711;28;20542;-71
2021/07/31 00:42:36;;;;;;;;;;;;;;;12.98;41.30;94818.31;5011371;28;20383;-71
2021/07/31 00:45:02;;;;;;;6.25;1.38;;;;;;;13.01;41.62;94821.41;5010975;28;20379;-71
2021/07/31 00:47:27;;;;;;;1.75;1.10;;;;;;;13.17;41.24;94814.75;5010514;28;20124;-70
2021/07/31 00:49:53;;;;;;;4.22;1.42;;;;;;;12.50;42.67;94814.97;5011416;28;20028;-71
2021/07/31 00:52:18;;;;;;;2.78;1.50;;;;;;;13.39;40.72;94827.75;5009315;28;20092;-71
2021/07/31 00:54:43;;;;;;;7.75;1.90;;;;;;;13.12;41.26;94814.56;5008867;28;20044;-71
2021/07/31 00:57:09;;;;;;;6.43;1.83;;;;;;;13.16;41.25;94820.31;5011094;28;20026;-71
2021/07/31 00:59:34;;;;;;;3.15;1.35;;;;;;;13.09;41.38;94814.97;5008819;28;20045;-71
2021/07/31 01:01:59;;;;;;;5.20;1.30;;;;;;;13.24;41.00;94819.22;5008011;28;20025;-71
2021/07/31 01:04:25;;;;;;;5.57;1.20;;;;;;;12.89;41.92;94821.19;5009257;28;20898;-71
2021/07/31 01:06:50;;;;;;;3.67;1.50;;;;;;;12.08;43.49;94823.28;5009912;28;20022;-71
2021/07/31 01:09:16;;;;;;;7.10;1.50;;;;;;;12.24;43.36;94816.69;5010024;28;20045;-70
2021/07/31 01:11:41;;;;;;;4.47;1.60;;;;;;;12.81;42.22;94810.75;5010167;28;20045;-70
2021/07/31 01:14:06;;;;;;;3.53;1.30;;;;;;;12.58;42.94;94821.94;5008597;28;20017;-71
2021/07/31 01:16:32;;;;;;;7.70;1.65;;;;;;;11.92;44.35;94819.16;5008399;28;20522;-71
2021/07/31 01:18:57;;;;;;;4.50;1.38;;;;;;;11.89;45.00;94821.22;5009403;28;20053;-71
2021/07/31 01:21:39;;;;;;;6.15;1.55;;;;;;;12.02;44.42;94822.22;5010512;28;20033;-70
2021/07/31 01:24:05;;;;;;;3.58;1.50;;;;;;;12.14;44.42;94823.25;5005203;28;20076;-70
2021/07/31 01:26:35;;;;;;;8.65;1.67;;;;;;;11.96;44.76;94828.38;5009859;28;20034;-71
2021/07/31 01:29:03;;;;;;;3.67;1.50;;;;;;;12.15;44.59;94824.09;5009623;28;20069;-70
2021/07/31 01:31:28;;;;;;;4.50;1.75;;;;;;;12.12;44.72;94827.16;5009150;28;20033;-71
2021/07/31 01:33:54;;;;;;;4.53;1.58;;;;;;;11.70;45.72;94828.16;5009711;28;20045;-71
2021/07/31 01:36:19;;;;;;;4.20;1.10;;;;;;;11.78;45.44;94824.50;5008578;28;20049;-71
2021/07/31 01:38:44;;;;;;;7.55;1.92;;;;;;;11.02;47.24;94837.06;5008927;28;20033;-71
2021/07/31 01:41:10;;;;;;;5.93;1.48;;;;;;;11.19;47.26;94818.91;5008689;28;20030;-71
2021/07/31 01:43:35;;;;;;;3.75;1.30;;;;;;;11.83;45.64;94824.69;5008879;28;20653;-71
2021/07/31 01:46:01;;;;;;;2.00;1.52;;;;;;;11.26;47.01;94825.06;5007636;28;20029;-71
2021/07/31 01:48:26;;;;;;;4.25;1.52;;;;;;;11.82;45.84;94811.56;5008147;28;20034;-71
2021/07/31 01:50:51;;;;;;;7.20;1.70;;;;;;;11.56;45.97;94824.69;5008826;28;20030;-71
2021/07/31 01:53:17;;;;;;;5.20;1.70;;;;;;;11.55;46.80;94817.72;5008801;28;20033;-71
2021/07/31 01:55:42;;;;;;;4.40;1.65;;;;;;;11.32;47.00;94813.59;5008689;28;20635;-71
2021/07/31 01:58:08;;;;;;;3.35;1.40;;;;;;;11.39;46.94;94824.25;5008746;28;20045;-71
2021/07/31 02:00:33;;;;;;;3.67;1.75;;;;;;;10.92;48.01;94840.94;5007970;28;20041;-71
2021/07/31 02:02:58;;;;;;;5.55;1.48;;;;;;;10.86;48.42;94818.56;5004799;28;20102;-70
2021/07/31 02:05:24;;;;;;;3.47;1.35;;;;;;;9.98;51.08;94841.19;5008596;28;20507;-70
2021/07/31 02:07:49;;;;;;;3.58;1.25;;;;;;;10.52;49.06;94830.91;5008272;28;20037;-70
2021/07/31 02:10:15;;;;;;;4.45;1.50;;;;;;;10.00;50.35;94838.34;5008477;28;20045;-72
2021/07/31 02:12:40;;;;;;;3.05;1.52;;;;;;;9.88;50.76;94835.38;5008231;28;20037;-71
2021/07/31 02:15:06;;;;;;;5.00;1.40;;;;;;;9.73;51.25;94828.31;5008342;28;20049;-71
2021/07/31 02:17:32;;;;;;;4.03;1.60;;;;;;;9.23;52.17;94844.19;5008783;28;20041;-71
2021/07/31 02:19:57;;;;;;;2.90;1.20;;;;;;;9.65;51.64;94831.94;5008452;28;20046;-71
2021/07/31 02:22:23;;;;;;;2.97;1.30;;;;;;;9.18;52.68;94826.19;5008158;28;20029;-71
2021/07/31 02:24:48;;;;;;;4.72;1.38;;;;;;;10.25;49.74;94827.25;5008390;28;20072;-70
2021/07/31 02:27:14;;;;;;;1.83;1.27;;;;;;;10.43;49.17;94821.44;5006654;28;20026;-70
2021/07/31 02:29:39;;;;;;;3.10;1.25;;;;;;;10.57;49.36;94825.81;5008816;28;20038;-70
2021/07/31 02:32:05;;;;;;;5.85;1.55;;;;;;;10.39;48.91;94844.13;5007801;28;20096;-70
2021/07/31 02:34:30;;;;;;;2.42;1.17;;;;;;;10.29;49.23;94824.03;5008770;28;20509;-70
2021/07/31 02:36:56;;;;;;;5.20;1.38;;;;;;;9.89;50.46;94826.41;5006537;28;20061;-70
2021/07/31 02:39:21;;;;;;;3.63;1.45;;;;;;;9.84;50.61;94826.97;5007020;28;20746;-71
2021/07/31 02:41:46;;;;;;;2.75;1.17;;;;;;;10.12;50.68;94833.31;5007933;28;20018;-71
2021/07/31 02:44:12;;;;;;;2.30;1.30;;;;;;;10.06;49.75;94824.28;5007882;28;20050;-71
2021/07/31 02:46:37;;;;;;;3.35;1.25;;;;;;;10.14;50.20;94818.84;5006335;28;20034;-70
2021/07/31 02:49:03;;;;;;;5.95;1.85;;;;;;;9.56;51.69;94820.59;5007877;28;20077;-70
2021/07/31 02:51:28;;;;;;;2.40;1.08;;;;;;;9.68;50.98;94820.91;5007708;28;20030;-70
2021/07/31 02:53:53;;;;;;;5.97;1.38;;;;;;;10.36;49.96;94816.06;5007972;28;20088;-70
2021/07/31 02:56:19;;;;;;;4.38;1.23;;;;;;;10.05;50.30;94811.97;5007535;28;20076;-71
2021/07/31 02:58:44;;;;;;;3.80;1.63;;;;;;;9.99;50.46;94818.88;5007446;28;20026;-71
2021/07/31 03:01:10;;;;;;;2.38;1.08;;;;;;;10.14;50.25;94802.88;5007737;28;20337;-70
2021/07/31 03:03:35;;;;;;;4.32;1.50;;;;;;;9.81;51.21;94809.56;5000965;28;20573;-71
2021/07/31 03:06:01;;;;;;;2.40;1.33;;;;;;;9.85;51.03;94810.81;5007748;28;20036;-70
2021/07/31 03:08:29;;;;;;;5.40;1.55;;;;;;;9.77;51.68;94808.31;5007266;28;20046;-70
2021/07/31 03:10:56;;;;;;;3.58;1.40;;;;;;;9.51;52.09;94803.59;5006076;28;20411;-70
2021/07/31 03:13:21;;;;;;;2.95;1.35;;;;;;;9.15;52.99;94806.13;4987856;28;20030;-70
2021/07/31 03:15:47;;;;;;;2.50;1.30;;;;;;;8.93;54.28;94799.94;5007263;28;20045;-71
2021/07/31 03:18:12;;;;;;;3.95;1.50;;;;;;;8.91;53.75;94804.63;5007688;28;20497;-70
2021/07/31 03:20:37;;;;;;;4.78;1.50;;;;;;;9.10;53.47;94794.41;5007504;28;20382;-70
2021/07/31 03:23:03;;;;;;;4.35;1.70;;;;;;;8.65;54.55;94790.88;5007470;28;20045;-70
2021/07/31 03:25:28;;;;;;;4.35;1.50;;;;;;;8.88;53.67;94794.38;5007616;28;20037;-70
2021/07/31 03:27:54;;;;;;;4.63;1.65;;;;;;;9.48;52.24;94802.13;5007363;28;20034;-70
2021/07/31 03:30:19;;;;;;;3.03;1.55;;;;;;;9.62;51.76;94795.09;5007290;28;20043;-70
2021/07/31 03:32:45;;;;;;;5.00;1.60;;;;;;;9.49;52.13;94808.28;5004564;28;20454;-71
2021/07/31 03:35:10;;;;;;;2.92;1.15;;;;;;;9.75;51.19;94794.38;5004762;28;20080;-71
2021/07/31 03:37:35;;;;;;;4.78;1.20;;;;;;;9.91;50.88;94800.44;5005386;28;20037;-71
2021/07/31 03:40:02;;;;;;;4.53;1.42;;;;;;;9.52;51.44;94802.59;5004993;28;20498;-71
2021/07/31 03:42:27;;;;;;;3.28;1.30;;;;;;;10.46;49.65;94795.25;5006836;28;20088;-70
2021/07/31 03:44:53;;;;;;;5.35;1.70;;;;;;;10.20;50.04;94793.28;5006793;28;20118;-70
2021/07/31 03:47:18;;;;;;;5.40;1.30;;;;;;;10.29;49.69;94800.09;5006697;28;20176;-70
2021/07/31 03:49:44;;;;;;;4.70;1.55;;;;;;;9.63;52.09;94798.59;5005787;28;20082;-70
2021/07/31 03:52:10;;;;;;;7.50;1.58;;;;;;;9.73;52.09;94804.41;5007177;28;20110;-70
2021/07/31 03:54:36;;;;;;;3.38;1.63;;;;;;;9.77;52.13;94808.31;5007670;28;20431;-70
2021/07/31 03:57:02;;;;;;;2.65;1.27;;;;;;;9.79;51.78;94806.28;5006968;28;20106;-70
2021/07/31 03:59:27;;;;;;;1.67;1.20;;;;;;;9.36;53.11;94806.31;5007135;28;20104;-70
2021/07/31 04:01:54;;;;;;;3.28;1.45;;;;;;;9.01;54.28;94799.84;5007173;28;20101;-71
2021/07/31 04:04:20;;;;;;;5.23;1.60;;;;;;;9.60;52.25;94807.78;5006720;28;20486;-71
2021/07/31 04:06:45;;;;;;;3.65;1.55;;;;;;;9.61;52.15;94811.22;5007126;28;20089;-71
2021/07/31 04:09:11;;;;;;;2.08;1.23;;;;;;;10.07;51.23;94796.69;5007102;28;20125;-70
2021/07/31 04:11:36;;;;;;;6.60;1.70;;;;;;;9.63;52.01;94801.25;5007107;28;20114;-70
2021/07/31 04:14:02;;;;;;;3.90;1.30;;;;;;;9.75;51.92;94801.56;5007141;28;20082;-70
2021/07/31 04:16:27;;;;;;;3.15;1.58;;;;;;;9.03;53.15;94811.13;5005592;28;20198;-70
2021/07/31 04:18:52;;;;;;;6.82;1.60;;;;;;;9.26;52.95;94796.84;5006781;28;20378;-70
2021/07/31 04:21:19;;;;;;;5.95;1.55;;;;;;;9.16;53.54;94807.78;5007566;28;20125;-70
2021/07/31 04:23:45;;;;;;;4.38;1.65;;;;;;;9.38;53.19;94809.63;5007866;28;20114;-70
2021/07/31 04:26:11;;;;;;;4.70;1.63;;;;;;;8.86;54.40;94810.50;5010744;28;20079;-71
2021/07/31 04:28:36;;;;;;;2.33;1.38;;;;;;;9.53;52.35;94814.84;5010607;28;20057;-70
2021/07/31 04:31:09;;;;;;;4.45;1.50;;;;;;;8.88;54.36;94813.78;5010794;28;20094;-70
2021/07/31 04:33:34;;;;;;;2.67;1.35;;;;;;;8.77;54.75;94816.94;5010935;28;20466;-70
2021/07/31 04:36:00;;;;;;;12.45;1.50;;;;;;;8.85;54.66;94815.97;5009153;28;20168;-70
2021/07/31 04:38:26;;;;;;;5.72;1.63;;;;;;;8.94;54.37;94826.31;5010439;28;20090;-70
2021/07/31 04:40:51;;;;;;;2.20;1.50;;;;;;;8.62;55.41;94799.19;5010435;28;20118;-70
2021/07/31 04:43:17;;;;;;;2.92;1.63;;;;;;;9.14;53.83;94801.00;5010065;28;20168;-70
2021/07/31 04:45:42;;;;;;;4.80;1.70;;;;;;;8.30;56.41;94804.72;5010752;28;20391;-70
2021/07/31 04:48:07;;;;;;;5.97;1.48;;;;;;;8.32;57.06;94824.94;5004738;28;20034;-70
2021/07/31 04:50:33;;;;;;;4.50;1.58;;;;;;;8.12;57.49;94805.06;5010743;28;20038;-70
2021/07/31 04:52:58;;;;;;;4.70;1.80;;;;;;;8.13;57.44;94808.56;5009886;28;20036;-70
2021/07/31 04:55:24;;;;;;;3.70;1.70;;;;;;;8.18;57.48;94816.78;5010363;28;20053;-70
2021/07/31 04:57:49;;;;;;;2.55;1.50;;;;;;;8.34;57.04;94815.78;5010726;28;20022;-70
2021/07/31 05:00:15;;;;;;;4.75;1.83;;;;;;;8.21;57.40;94821.72;5009807;28;20053;-70
2021/07/31 05:02:40;;;;;;;4.47;1.73;;;;;;;8.11;57.93;94802.59;5010088;28;20084;-70
2021/07/31 05:05:06;;;;;;;6.85;1.98;;;;;;;8.20;56.85;94824.56;5009745;28;20522;-70
2021/07/31 05:07:31;;;;;;;5.18;1.98;;;;;;;8.36;56.89;94818.25;5010108;28;20042;-70
2021/07/31 05:09:57;;;;;;;6.07;1.90;;;;;;;8.54;56.38;94797.47;5010007;28;20053;-70
2021/07/31 05:12:22;;;;;;;2.35;1.52;;;;;;;8.81;56.03;94800.44;5009546;28;20045;-70
2021/07/31 05:14:51;;;;;;;3.72;1.60;;;;;;;8.92;54.94;94795.66;5009296;28;20093;-70
2021/07/31 05:17:19;;;;;;;5.97;1.77;;;;;;;8.41;56.50;94803.44;5003929;28;20472;-70
2021/07/31 05:19:45;;;;;;;1.95;1.63;;;;;;;8.03;57.50;94801.69;5003536;28;20110;-70
2021/07/31 05:22:11;;;;;;;3.03;1.67;;;;;;;8.52;56.33;94809.28;5009746;28;20086;-70
2021/07/31 05:24:36;;;;;;;3.92;1.75;;;;;;;8.39;57.10;94799.31;5009655;28;20125;-70
2021/07/31 05:27:02;;;;;;;7.28;1.77;;;;;;;8.32;56.75;94822.28;5009686;28;20102;-71
2021/07/31 05:29:27;;;;;;;3.03;1.38;;;;;;;8.19;57.28;94826.38;5009855;28;20155;-70
2021/07/31 05:31:53;;;;;;;4.28;1.67;;;;;;;7.91;58.03;94830.47;5010030;28;20110;-70
2021/07/31 05:34:18;;;;;;;6.28;1.85;;;;;;;8.20;58.11;94830.69;5009807;28;20101;-70
2021/07/31 05:36:43;;;;;;;5.05;1.77;;;;;;;8.70;56.33;94816.84;5009228;28;20117;-69
2021/07/31 05:39:09;;;;;;;3.85;1.60;;;;;;;8.61;56.68;94825.91;5009425;28;20102;-70
2021/07/31 05:41:34;;;;;;;5.38;1.80;;;;;;;8.47;57.46;94831.03;5009872;28;20098;-70
2021/07/31 05:44:00;;;;;;;5.70;1.75;;;;;;;8.61;56.85;94821.44;5008939;28;20121;-70
2021/07/31 05:46:25;;;;;;;6.53;1.80;;;;;;;8.56;56.89;94842.38;5009232;28;20140;-69
2021/07/31 05:48:52;;;;;;;4.68;1.80;;;;;;;8.72;56.81;94828.09;5007709;28;20106;-70
2021/07/31 05:51:17;;;;;;;8.60;2.10;;;;;;;8.25;58.61;94827.47;5008945;28;20607;-70
2021/07/31 05:53:43;;;;;;;7.97;2.00;;;;;;;8.22;58.61;94849.06;5008735;28;20082;-70
2021/07/31 05:56:09;;;;;;;7.38;1.77;;;;;;;8.25;58.58;94830.13;5008317;28;20594;-69
2021/07/31 05:58:37;;;;;;;6.13;2.03;;;;;;;8.07;58.80;94838.44;5009221;28;20090;-70
2021/07/31 06:01:06;;;;;;;5.50;1.60;;;;;;;8.22;59.02;94835.78;5008673;28;20110;-70
2021/07/31 06:03:33;;;;;;;2.80;1.73;;;;;;;8.12;59.23;94842.19;5008754;28;20136;-70
2021/07/31 06:05:58;;;;;;;4.53;2.15;;;;;;;8.34;58.14;94831.69;5008690;28;20093;-69
2021/07/31 06:08:24;;;;;;;4.60;2.10;;;;;;;8.67;57.39;94841.09;5008059;28;20130;-69
2021/07/31 06:10:49;;;;;;;4.47;1.95;;;;;;;8.22;58.57;94830.50;5012285;28;20207;-69
2021/07/31 06:13:15;;;;;;;3.42;1.77;;;;;;;8.41;58.83;94831.78;5008076;28;20480;-70
2021/07/31 06:15:42;;;;;;;4.00;1.90;;;;;;;8.96;57.23;94842.09;5007267;28;20048;-76
2021/07/31 06:18:07;;;;;;;5.47;2.50;;;;;;;9.08;56.96;94829.16;5008101;28;20038;-77
2021/07/31 06:20:33;;;;;;;4.70;1.90;;;;;;;9.11;56.29;94831.41;5004463;28;20069;-68
2021/07/31 06:22:59;;;;;;;5.25;1.95;;;;;;;8.71;57.41;94820.31;5009477;28;20375;-68
2021/07/31 06:25:24;;;;;;;9.68;2.25;;;;;;;9.04;56.50;94835.81;5008109;28;20044;-68
2021/07/31 06:27:53;;;;;;;8.95;2.25;;;;;;;8.72;57.61;94829.91;5012470;28;20038;-68
2021/07/31 06:30:19;;;;;;;10.05;2.20;;;;;;;9.04;56.97;94826.03;5008257;28;20541;-68
2021/07/31 06:32:44;;;;;;;3.05;1.85;;;;;;;8.86;58.07;94844.16;5010909;28;20066;-68
2021/07/31 06:35:10;;;;;;;7.45;2.42;;;;;;;9.39;55.91;94828.00;5007597;28;20041;-68
2021/07/31 06:37:35;;;;;;;4.63;2.15;;;;;;;9.78;54.78;94831.22;5007446;28;20058;-69
2021/07/31 06:40:00;;;;;;;3.30;1.60;;;;;;;9.41;55.49;94876.47;5008763;28;20084;-68
2021/07/31 06:42:26;;;;;;;5.70;1.83;;;;;;;9.89;54.96;94850.31;5007593;28;20647;-68
2021/07/31 06:44:52;;;;;;;2.55;1.70;;;;;;;9.79;54.25;94848.00;5008791;28;20052;-68
2021/07/31 06:47:17;;;;;;;6.30;2.10;;;;;;;9.94;54.28;94855.88;5003658;28;20037;-68
2021/07/31 06:49:43;;;;;;;7.97;2.17;;;;;;;10.03;54.12;94859.22;5007860;28;20049;-68
2021/07/31 06:52:08;;;;;;;4.65;2.00;;;;;;;9.94;54.08;94866.50;5008760;28;20106;-68
2021/07/31 06:54:34;;;;;;;1.85;1.67;;;;;;;9.72;54.11;94887.78;5006530;28;20034;-68
2021/07/31 06:56:59;;;;;;;1.70;1.60;;;;;;;10.22;53.69;94871.88;5006912;28;20037;-68
2021/07/31 06:59:25;;;;;;;4.18;1.50;;;;;;;10.67;52.45;94851.25;5006014;28;20106;-68
2021/07/31 07:01:50;;;;;;;4.75;1.88;;;;;;;10.46;52.41;94858.28;5004511;28;20620;-68
2021/07/31 07:04:15;;;;;;;9.43;2.00;;;;;;;10.17;53.18;94868.16;5005959;28;20467;-68
2021/07/31 07:06:41;;;;;;;3.50;1.45;;;;;;;10.53;52.74;94859.16;5005591;28;20140;-68
2021/07/31 07:09:06;;;;;;;6.65;1.90;;;;;;;10.25;53.36;94870.66;5009343;28;20049;-68
2021/07/31 07:11:32;;;;;;;3.72;1.80;;;;;;;11.28;51.33;94862.97;5009196;28;20484;-68
2021/07/31 07:13:57;;;;;;;5.60;1.95;;;;;;;10.97;51.71;94862.44;5007703;28;20037;-68
2021/07/31 07:16:22;;;;;;;3.75;1.80;;;;;;;10.27;53.63;94857.97;5007166;28;20136;-68
2021/07/31 07:18:48;;;;;;;4.90;1.73;;;;;;;10.31;53.62;94864.56;5007301;28;20526;-68
2021/07/31 07:21:13;;;;;;;4.22;1.55;;;;;;;10.79;51.74;94859.50;5008234;28;20045;-68
2021/07/31 07:23:39;;;;;;;3.30;2.08;;;;;;;10.64;52.30;94864.97;5006572;28;20168;-68
2021/07/31 07:26:08;;;;;;;5.53;1.88;;;;;;;11.02;51.09;94872.50;5008006;28;20103;-68
2021/07/31 07:28:34;;;;;;;6.88;2.10;;;;;;;11.57;50.34;94874.31;5006406;28;20076;-68
2021/07/31 07:30:59;;;;;;;5.82;2.20;;;;;;;10.33;52.90;94882.97;5008482;28;20038;-68
2021/07/31 07:33:25;;;;;;;4.10;1.90;;;;;;;10.81;51.42;94876.09;5007368;28;20056;-68
2021/07/31 07:35:51;;;;;;;4.15;1.80;;;;;;;10.39;52.35;94884.88;5005397;28;20037;-68
2021/07/31 07:38:17;;;;;;;6.43;1.80;;;;;;;10.68;53.18;94872.34;5007052;28;20491;-68
2021/07/31 07:40:43;;;;;;;4.43;1.85;;;;;;;11.22;51.18;94880.59;5005185;28;20045;-68
2021/07/31 07:43:08;;;;;;;3.92;1.88;;;;;;;10.51;52.35;94871.84;5005639;28;20050;-68
2021/07/31 07:45:34;;;;;;;4.88;1.80;;;;;;;10.58;52.85;94886.00;5006417;28;20108;-68
2021/07/31 07:47:59;;;;;;;6.20;2.30;;;;;;;10.75;52.09;94883.84;5005780;28;20325;-68
2021/07/31 07:50:24;;;;;;;5.57;1.90;;;;;;;11.02;51.77;94871.69;5010569;28;20046;-68
2021/07/31 07:52:50;;;;;;;3.60;1.70;;;;;;;10.67;52.87;94867.22;5007170;28;20045;-68
2021/07/31 07:55:15;;;;;;;4.00;1.55;;;;;;;10.39;52.23;94892.03;5008399;28;20038;-68
2021/07/31 07:57:41;;;;;;;4.45;1.80;;;;;;;10.98;50.57;94871.25;5006613;28;20408;-68
2021/07/31 08:00:07;;;;;;;2.70;1.70;;;;;;;11.92;49.38;94859.16;5009099;28;20038;-69
2021/07/31 08:02:33;;;;;;;2.55;1.55;;;;;;;12.32;47.55;94874.34;5011526;28;20033;-68
2021/07/31 08:04:59;;;;;;;3.83;1.90;;;;;;;12.15;47.79;94874.78;5009694;28;20042;-68
2021/07/31 08:07:24;;;;;;;4.57;2.10;;;;;;;11.33;49.85;94876.53;5009698;28;20041;-68
2021/07/31 08:09:50;;;;;;;6.35;2.00;;;;;;;11.69;49.71;94877.19;5010059;28;20046;-69
2021/07/31 08:12:15;;;;;;;5.05;2.42;;;;;;;12.40;48.06;94871.47;5009833;28;20383;-68
2021/07/31 08:14:40;;;;;;;6.00;1.90;;;;;;;12.27;49.51;94882.97;4995487;28;20033;-68
2021/07/31 08:17:06;;;;;;;4.47;2.00;;;;;;;11.48;50.02;94880.84;5009408;28;20053;-68
2021/07/31 08:19:31;;;;;;;4.00;1.80;;;;;;;12.12;48.46;94886.69;5012134;28;20042;-68
2021/07/31 08:21:57;;;;;;;4.05;1.70;;;;;;;12.16;48.81;94889.75;5009364;28;20045;-68
2021/07/31 08:24:22;;;;;;;6.82;1.98;;;;;;;11.86;50.09;94882.97;5007041;28;20092;-68
2021/07/31 08:26:48;;;;;;;3.67;1.80;;;;;;;12.52;47.54;94887.69;5009014;28;20052;-68
2021/07/31 08:29:13;;;;;;;1.98;1.60;;;;;;;13.08;46.72;94872.13;5013217;28;20033;-68
2021/07/31 08:31:41;;;;;;;2.78;1.50;;;;;;;13.00;47.40;94891.06;5012648;28;20100;-68
2021/07/31 08:34:09;;;;;;;4.50;1.80;;;;;;;12.64;46.58;94894.03;5009915;28;20033;-67
2021/07/31 08:36:35;;;;;;;4.00;1.55;;;;;;;12.72;47.15;94898.31;5007854;28;20049;-67
2021/07/31 08:39:01;;;;;;;2.63;1.67;;;;;;;12.40;47.46;94904.34;5011723;28;20030;-67
2021/07/31 08:41:26;;;;;;;10.90;5.03;;;;;;;12.38;47.44;94911.72;5011866;28;20030;-68
2021/07/31 08:43:52;;;;;;;3.22;1.88;;;;;;;12.74;46.89;94895.44;5012305;28;20030;-68
2021/07/31 08:46:17;;;;;;;5.13;1.85;;;;;;;11.71;49.75;94890.31;5010233;28;20060;-68
2021/07/31 08:48:43;;;;;;;3.67;2.00;;;;;;;11.82;48.70;94903.06;5010211;28;20447;-68
2021/07/31 08:51:08;;;;;;;3.72;1.80;;;;;;;12.13;48.71;94884.84;5008221;28;20045;-68
2021/07/31 08:53:34;;;;;;;2.20;1.65;;;;;;;12.83;48.69;94883.50;5008767;28;20051;-68
2021/07/31 08:55:59;;;;;;;3.67;1.50;;;;;;;12.95;46.79;94890.88;5009458;28;20069;-70
2021/07/31 08:58:25;;;;;;;4.13;1.77;;;;;;;13.08;46.46;94898.84;5009973;28;20034;-68
2021/07/31 09:00:51;;;;;;;5.38;1.90;;;;;;;11.85;48.79;94897.31;5010199;28;20041;-67
2021/07/31 09:03:17;;;;;;;4.18;2.05;;;;;;;12.32;48.12;94933.91;5016981;28;20060;-67
2021/07/31 09:05:42;;;;;;;3.53;1.80;;;;;;;12.28;48.30;94892.66;5014045;28;20033;-68
2021/07/31 09:08:08;;;;;;;3.72;1.95;;;;;;;12.97;46.65;94902.16;5009650;28;20053;-67
2021/07/31 09:10:38;;;;;;;6.57;2.00;;;;;;;12.23;48.29;94906.59;5006361;28;20503;-67
2021/07/31 09:13:12;;;;;;;2.40;1.70;;;;;;;12.73;46.83;94923.16;5008889;28;20129;-68
2021/07/31 09:15:42;;;;;;;3.58;1.90;;;;;;;11.98;48.53;94911.69;5014819;28;20119;-68
2021/07/31 09:18:30;;;;;;;2.45;1.50;;;;;;;12.65;47.57;94901.00;5003005;28;20022;-68
2021/07/31 09:21:12;;;;;;;2.45;1.83;;;;;;;12.25;48.07;94909.91;5010654;28;20084;-68
2021/07/31 09:23:47;;;;;;;4.45;2.10;;;;;;;12.21;48.63;94910.50;5009373;28;20037;-68
2021/07/31 09:26:19;;;;;;;3.22;1.75;;;;;;;13.12;46.14;94905.41;5010150;28;20585;-68
2021/07/31 09:28:45;;;;;;;6.65;1.92;;;;;;;12.40;48.12;94912.34;5009035;28;20706;-68
2021/07/31 09:31:17;;;;;;;2.42;1.80;;;;;;;12.83;47.23;94918.22;5019036;28;20100;-68
2021/07/31 09:33:44;;;;;;;2.88;1.67;;;;;;;13.59;45.31;94920.41;5008618;28;20105;-68
2021/07/31 09:36:10;;;;;;;4.30;1.90;;;;;;;13.40;45.82;94919.50;5009606;28;20042;-68
2021/07/31 09:38:40;;;;;;;3.85;2.08;;;;;;;14.04;44.19;94918.72;5013164;28;20092;-68
2021/07/31 09:41:21;;;;;;;5.28;1.88;;;;;;;14.43;43.62;94913.25;5010042;28;20077;-68
2021/07/31 09:44:06;;;;;;;2.47;1.50;;;;;;;14.11;43.74;94937.41;5010594;28;20037;-68
2021/07/31 09:46:35;;;;;;;3.97;1.60;;;;;;;13.58;44.89;94924.13;5007683;28;20040;-68
2021/07/31 09:49:01;;;;;;;4.72;1.90;;;;;;;13.29;45.00;94943.16;5008440;28;20122;-68
2021/07/31 09:51:33;;;;;;;3.92;1.75;;;;;;;13.52;45.04;94931.16;5009113;28;20116;-68
2021/07/31 09:54:00;;;;;;;4.88;1.60;;;;;;;13.23;45.92;94935.19;5003965;28;20030;-68
2021/07/31 09:56:25;;;;;;;5.33;1.60;;;;;;;12.51;47.12;94931.44;5005732;28;20033;-68
2021/07/31 09:58:51;;;;;;;7.07;2.42;;;;;;;13.04;46.80;94937.72;5011563;28;20034;-68
2021/07/31 10:01:16;;;;;;;4.43;1.90;;;;;;;13.03;45.82;94944.09;5009227;28;20026;-68
2021/07/31 10:03:42;;;;;;;4.60;2.03;;;;;;;13.32;45.53;94931.22;5011280;28;20068;-68
2021/07/31 10:06:07;;;;;;;4.15;1.77;;;;;;;13.04;46.60;94943.06;5007207;28;20037;-68
2021/07/31 10:08:38;;;;;;;3.83;1.98;;;;;;;12.92;46.72;94927.63;5004418;28;20042;-68
2021/07/31 10:11:04;;;;;;;2.40;1.63;;;;;;;13.47;44.52;94938.16;5002768;28;20038;-69
2021/07/31 10:13:29;;;;;;;3.58;1.60;;;;;;;12.94;45.07;94932.78;5008473;28;20149;-68
2021/07/31 10:15:55;;;;;;;3.35;1.52;;;;;;;13.40;44.86;94936.34;5009473;28;20042;-68
2021/07/31 10:18:23;;;;;;;3.15;1.73;;;;;;;12.72;47.23;94943.69;5008757;28;20071;-68
2021/07/31 10:20:48;;;;;;;3.22;1.40;;;;;;;12.57;47.34;94940.47;5007760;28;20201;-68
2021/07/31 10:23:35;;;;;;;7.63;1.88;;;;;;;12.70;47.78;94942.28;5006390;28;20034;-68
2021/07/31 10:26:07;;;;;;;3.17;1.67;;;;;;;12.25;47.36;94963.28;5006963;28;20060;-68
2021/07/31 10:28:33;;;;;;;2.13;1.55;;;;;;;12.74;46.85;94948.84;5006565;28;20447;-68
2021/07/31 10:31:32;;;;;;;2.80;1.60;;;;;;;12.71;46.35;94951.94;5007261;28;20050;-68
2021/07/31 10:33:58;;;;;;;3.00;1.52;;;;;;;13.11;45.77;94951.03;5005263;28;20030;-68
2021/07/31 10:36:29;;;;;;;4.13;1.55;;;;;;;13.45;44.27;94946.41;5007356;28;20379;-68
2021/07/31 10:38:55;;;;;;;6.20;1.70;;;;;;;13.11;45.68;94951.03;5007811;28;20128;-70
2021/07/31 10:41:56;;;;;;;2.78;1.50;;;;;;;12.85;45.48;94953.53;5004900;28;20037;-68
2021/07/31 10:44:21;;;;;;;3.70;1.60;;;;;;;12.52;46.18;94957.09;5006474;28;20057;-68
2021/07/31 10:46:47;;;;;;;4.72;2.10;;;;;;;11.88;48.34;94954.78;5009230;28;22491;-67
2021/07/31 10:49:31;;;;;;;4.20;1.40;;;;;;;12.58;47.15;94955.44;5005911;28;20041;-67
2021/07/31 10:51:57;;;;;;;4.65;1.77;;;;;;;13.75;44.97;94947.69;5001449;28;20152;-68
2021/07/31 10:55:00;;;;;;;3.97;1.63;;;;;;;14.19;43.12;94955.88;5006494;28;20078;-68
2021/07/31 10:57:53;;;;;;;5.75;1.92;;;;;;;13.41;45.01;94956.72;5003885;28;20260;-68
2021/07/31 11:00:26;;;;;;;1.67;1.45;;;;;;;13.50;45.11;94965.28;5004912;28;20113;-68
2021/07/31 11:02:51;;;;;;;4.75;1.85;;;;;;;13.83;44.25;94950.94;5006670;28;20109;-68
2021/07/31 11:05:17;;;;;;;1.80;1.70;;;;;;;13.64;43.87;94957.22;5007540;28;20512;-68
2021/07/31 11:07:57;;;;;;;3.78;1.73;;;;;;;14.39;42.46;94955.72;4997954;28;20213;-68
2021/07/31 11:10:42;;;;;;;2.95;1.55;;;;;;;14.63;42.67;94955.09;5000966;28;20618;-68
2021/07/31 11:13:09;;;;;;;2.92;1.67;;;;;;;14.88;42.23;94965.00;5008476;28;20112;-68
2021/07/31 11:15:34;;;;;;;3.35;1.60;;;;;;;14.54;41.85;94960.75;5003688;28;20239;-68
2021/07/31 11:18:01;;;;;;;3.70;1.63;;;;;;;14.21;41.93;94957.28;5007886;28;20566;-68
2021/07/31 11:20:31;;;;;;;2.90;1.73;;;;;;;14.18;42.84;94957.72;5002353;28;20113;-68
2021/07/31 11:22:57;;;;;;;5.10;1.70;;;;;;;13.34;44.42;94976.47;4994919;28;20052;-68
2021/07/31 11:25:22;;;;;;;1.95;1.52;;;;;;;14.09;43.64;94961.72;5001094;28;20030;-68
2021/07/31 11:27:59;;;;;;;4.93;1.70;;;;;;;14.15;42.12;94960.03;5032228;28;20057;-68
2021/07/31 11:30:40;;;;;;;4.00;1.70;;;;;;;14.39;41.62;94969.13;5000794;28;20475;-68
2021/07/31 11:33:23;;;;;;;4.97;1.88;;;;;;;14.18;41.54;94964.94;4995178;28;20885;-68
2021/07/31 11:35:59;;;;;;;2.13;1.33;;;;;;;13.73;43.47;94968.50;4996546;28;20107;-68